Time;durP1;ratioP1;P1;durP2;ratioP2;P2;SDS_P1;SDS_P2;PMS_P1;PMS_P2;Temp;Humidity;BMP_temperature;BMP_pressure;BME280_temperature;BME280_humidity;BME280_pressure;Samples;Min_cycle;Max_cycle;Signal;HPM_P1;HPM_P2
2022/11/25 00:02:15;;;;;;;39.70;16.83;;;;;;;3.12;100.00;101468.09;4981182;28;20192;-71
2022/11/25 00:04:40;;;;;;;25.67;14.97;;;;;;;3.05;100.00;101455.88;4967964;28;20200;-72
2022/11/25 00:07:05;;;;;;;38.50;15.70;;;;;;;3.01;100.00;101460.66;4981714;28;20216;-72
2022/11/25 00:09:31;;;;;;;34.00;15.63;;;;;;;2.97;100.00;101464.66;4978316;28;20188;-71
2022/11/25 00:11:56;;;;;;;30.17;15.17;;;;;;;2.96;100.00;101462.03;4979642;28;20273;-72
2022/11/25 00:14:22;;;;;;;20.70;13.07;;;;;;;2.92;100.00;101466.06;4981557;28;20290;-71
2022/11/25 00:16:47;;;;;;;20.27;13.70;;;;;;;2.88;100.00;101461.59;4978653;28;20227;-72
2022/11/25 00:19:13;;;;;;;20.67;13.03;;;;;;;2.85;100.00;101466.44;4978700;28;20212;-71
2022/11/25 00:21:38;;;;;;;24.03;12.83;;;;;;;2.83;100.00;101462.09;4982304;28;20220;-71
2022/11/25 00:24:05;;;;;;;20.27;12.37;;;;;;;2.83;100.00;101464.63;4976145;28;20841;-71
2022/11/25 00:26:32;;;;;;;21.43;12.77;;;;;;;2.84;100.00;101461.28;4976314;28;20249;-71
2022/11/25 00:29:01;;;;;;;25.47;12.50;;;;;;;2.85;100.00;101465.59;4982180;28;20972;-71
2022/11/25 00:31:29;;;;;;;26.53;13.20;;;;;;;2.83;100.00;101449.44;4987650;28;20287;-71
2022/11/25 00:33:55;;;;;;;52.43;13.60;;;;;;;2.79;100.00;101455.97;4982991;28;20658;-72
2022/11/25 00:36:29;;;;;;;34.03;13.50;;;;;;;2.80;100.00;101459.41;4981861;28;20218;-71
2022/11/25 00:38:58;;;;;;;53.17;14.57;;;;;;;2.79;100.00;101461.03;4980943;28;20226;-72
2022/11/25 00:46:54;;;;;;;32.87;12.83;;;;;;;2.75;100.00;101460.78;4980255;28;20204;-71
2022/11/25 00:49:19;;;;;;;48.43;13.93;;;;;;;2.78;100.00;101469.41;4977269;28;20663;-71
2022/11/25 00:51:45;;;;;;;66.83;14.50;;;;;;;2.73;100.00;101463.22;4976033;28;20205;-71
2022/11/25 00:54:11;;;;;;;23.93;13.37;;;;;;;2.72;100.00;101470.69;4985770;28;20195;-71
2022/11/25 00:56:37;;;;;;;33.43;13.60;;;;;;;2.71;100.00;101468.97;4978615;28;20296;-71
2022/11/25 00:59:02;;;;;;;43.47;14.07;;;;;;;2.69;100.00;101468.84;4980993;28;20212;-71
2022/11/25 01:01:28;;;;;;;31.00;12.97;;;;;;;2.72;100.00;101468.16;4983178;28;20209;-71
2022/11/25 01:03:53;;;;;;;28.77;12.43;;;;;;;2.76;100.00;101462.50;4974710;28;20196;-71
2022/11/25 01:06:19;;;;;;;32.17;12.97;;;;;;;2.75;100.00;101463.31;4984282;28;20226;-71
2022/11/25 01:08:45;;;;;;;30.13;13.57;;;;;;;2.76;100.00;101458.31;4975643;28;20191;-71
2022/11/25 01:11:15;;;;;;;33.23;13.30;;;;;;;2.74;100.00;101454.84;4982102;28;20251;-71
2022/11/25 01:13:41;;;;;;;26.87;13.47;;;;;;;2.74;100.00;101444.72;4977816;28;20215;-71
2022/11/25 01:16:08;;;;;;;22.10;13.57;;;;;;;2.78;100.00;101448.31;4970492;28;20238;-71
2022/11/25 01:18:33;;;;;;;20.93;13.67;;;;;;;2.79;100.00;101443.34;4971227;28;20227;-71
2022/11/25 01:21:18;;;;;;;23.73;14.73;;;;;;;2.80;100.00;101436.66;4979152;28;20203;-71
2022/11/25 01:23:45;;;;;;;28.47;15.23;;;;;;;2.82;100.00;101447.72;4957044;28;20185;-71
2022/11/25 01:26:14;;;;;;;24.63;15.63;;;;;;;2.84;100.00;101441.97;4985170;28;20274;-72
2022/11/25 01:28:40;;;;;;;26.73;15.20;;;;;;;2.77;100.00;101439.88;4981218;28;20826;-71
2022/11/25 01:31:08;;;;;;;26.00;16.07;;;;;;;2.71;100.00;101436.09;4975072;28;20290;-71
2022/11/25 01:33:34;;;;;;;29.47;16.20;;;;;;;2.69;100.00;101441.06;4978947;28;20196;-72
2022/11/25 01:36:02;;;;;;;35.43;19.00;;;;;;;2.78;100.00;101446.66;4981953;28;20224;-72
2022/11/25 01:38:27;;;;;;;37.37;19.93;;;;;;;2.91;100.00;101456.72;4985451;28;20211;-71
2022/11/25 01:40:53;;;;;;;30.23;18.10;;;;;;;2.86;100.00;101452.16;4974671;28;20682;-71
2022/11/25 01:43:18;;;;;;;28.87;17.17;;;;;;;2.76;100.00;101444.81;4992857;28;20199;-71
2022/11/25 01:45:44;;;;;;;27.30;17.27;;;;;;;2.67;100.00;101442.59;4988867;28;20299;-71
2022/11/25 01:48:17;;;;;;;30.00;16.20;;;;;;;2.59;100.00;101440.41;4984782;28;20620;-71
2022/11/25 01:50:44;;;;;;;27.80;16.13;;;;;;;2.51;100.00;101445.00;4968133;28;20199;-71
2022/11/25 01:53:13;;;;;;;30.73;18.17;;;;;;;2.48;100.00;101434.69;4983284;28;20224;-71
2022/11/25 01:55:42;;;;;;;46.17;17.47;;;;;;;2.44;100.00;101426.84;4965983;28;20235;-71
2022/11/25 01:58:14;;;;;;;34.10;17.73;;;;;;;2.41;100.00;101430.06;4980340;28;20561;-71
2022/11/25 02:00:39;;;;;;;32.47;17.47;;;;;;;2.42;100.00;101435.97;4959591;28;20287;-71
2022/11/25 02:03:06;;;;;;;31.37;18.93;;;;;;;2.39;100.00;101429.09;4972417;28;20254;-71
2022/11/25 02:05:38;;;;;;;33.30;17.40;;;;;;;2.39;100.00;101421.50;4984301;28;20224;-71
2022/11/25 02:08:06;;;;;;;33.03;17.97;;;;;;;2.41;100.00;101411.50;4982758;28;20235;-71
2022/11/25 02:10:32;;;;;;;27.13;17.43;;;;;;;2.44;100.00;101415.06;4986446;28;20216;-71
2022/11/25 02:12:58;;;;;;;31.83;18.93;;;;;;;2.56;100.00;101409.88;4969423;28;20216;-71
2022/11/25 02:15:24;;;;;;;34.77;19.53;;;;;;;2.64;100.00;101403.63;4988508;28;20204;-71
2022/11/25 02:17:50;;;;;;;36.80;19.77;;;;;;;2.74;100.00;101410.97;4971577;28;20215;-71
2022/11/25 02:20:21;;;;;;;37.43;20.10;;;;;;;2.75;100.00;101406.00;4986926;28;20208;-71
2022/11/25 02:23:11;;;;;;;38.60;20.57;;;;;;;2.79;100.00;101413.00;4962330;28;20294;-71
2022/11/25 02:25:39;;;;;;;33.47;20.00;;;;;;;2.82;100.00;101420.78;4978027;28;20212;-71
2022/11/25 02:28:28;;;;;;;36.57;20.23;;;;;;;2.75;100.00;101421.19;4980214;28;20251;-71
2022/11/25 02:30:54;;;;;;;35.07;20.60;;;;;;;2.72;100.00;101427.72;4970636;28;20202;-72
2022/11/25 02:33:21;;;;;;;44.53;22.10;;;;;;;2.85;100.00;101420.94;4985617;28;20212;-72
2022/11/25 02:35:51;;;;;;;37.70;19.40;;;;;;;2.78;100.00;101417.97;4980893;28;20224;-71
2022/11/25 02:38:41;;;;;;;39.27;21.97;;;;;;;2.77;100.00;101417.09;4982053;28;20188;-71
2022/11/25 02:41:24;;;;;;;34.63;19.13;;;;;;;2.74;100.00;101411.88;4984023;28;20193;-71
2022/11/25 02:43:54;;;;;;;37.87;20.07;;;;;;;2.75;100.00;101417.81;4980800;28;20188;-72
2022/11/25 02:46:23;;;;;;;39.97;19.60;;;;;;;2.76;100.00;101409.44;4982955;28;20215;-72
2022/11/25 02:48:50;;;;;;;34.53;19.73;;;;;;;2.75;100.00;101417.81;4982890;28;20207;-72
2022/11/25 02:51:20;;;;;;;40.27;22.57;;;;;;;2.90;100.00;101419.56;4982919;28;20199;-72
2022/11/25 02:53:45;;;;;;;39.33;20.87;;;;;;;2.98;100.00;101420.00;4976963;28;20188;-72
2022/11/25 02:56:13;;;;;;;35.20;20.13;;;;;;;2.89;100.00;101416.97;4986673;28;20208;-72
2022/11/25 02:58:39;;;;;;;37.53;19.83;;;;;;;2.84;100.00;101420.84;4990382;28;20211;-72
2022/11/25 03:01:08;;;;;;;38.03;20.50;;;;;;;2.88;100.00;101422.78;4979212;28;20200;-72
2022/11/25 03:03:34;;;;;;;41.53;20.87;;;;;;;2.96;100.00;101441.81;4985233;28;20238;-71
2022/11/25 03:05:59;;;;;;;39.60;21.17;;;;;;;3.08;100.00;101452.66;4992797;28;20342;-71
2022/11/25 03:08:25;;;;;;;44.90;22.00;;;;;;;3.00;100.00;101452.22;4972001;28;20310;-72
2022/11/25 03:10:51;;;;;;;48.57;20.90;;;;;;;3.03;100.00;101457.44;4987450;28;20180;-72
2022/11/25 03:13:17;;;;;;;40.50;21.20;;;;;;;3.03;100.00;101451.50;4968158;28;20646;-71
2022/11/25 03:15:43;;;;;;;42.03;20.73;;;;;;;3.03;100.00;101451.50;4980465;28;20204;-71
2022/11/25 03:18:08;;;;;;;38.23;20.70;;;;;;;2.99;100.00;101447.91;4979061;28;20356;-72
2022/11/25 03:20:35;;;;;;;59.47;21.27;;;;;;;2.98;100.00;101447.81;4978762;28;20212;-71
2022/11/25 03:23:03;;;;;;;34.97;19.70;;;;;;;2.94;100.00;101451.81;4979967;28;20188;-72
2022/11/25 03:25:28;;;;;;;40.40;21.00;;;;;;;2.86;100.00;101460.63;4986035;28;20219;-72
2022/11/25 03:27:54;;;;;;;34.63;20.03;;;;;;;2.78;100.00;101454.25;4992380;28;20227;-72
2022/11/25 03:30:24;;;;;;;39.37;19.77;;;;;;;2.82;100.00;101456.19;4963380;28;20184;-72
2022/11/25 03:32:52;;;;;;;31.87;18.93;;;;;;;2.78;100.00;101449.19;4983169;28;20189;-72
2022/11/25 03:35:18;;;;;;;72.37;21.17;;;;;;;2.75;100.00;101443.94;4972481;28;20186;-72
2022/11/25 03:37:44;;;;;;;59.10;18.97;;;;;;;2.72;100.00;101441.22;4986535;28;20185;-72
2022/11/25 03:40:11;;;;;;;36.93;18.53;;;;;;;2.71;100.00;101447.06;4988516;28;20207;-72
2022/11/25 03:42:38;;;;;;;27.90;16.47;;;;;;;2.69;100.00;101442.69;4981835;28;20195;-72
2022/11/25 03:45:06;;;;;;;32.00;17.60;;;;;;;2.65;100.00;101446.69;4982686;28;20180;-72
2022/11/25 03:47:32;;;;;;;41.27;17.83;;;;;;;2.60;100.00;101450.59;4979369;28;20176;-71
2022/11/25 03:49:58;;;;;;;30.80;18.50;;;;;;;2.56;100.00;101453.72;4981627;28;20330;-72
2022/11/25 03:52:24;;;;;;;29.07;17.73;;;;;;;2.54;100.00;101457.84;4971152;28;20203;-72
2022/11/25 03:54:49;;;;;;;38.77;19.47;;;;;;;2.53;100.00;101457.72;4983687;28;20188;-72
2022/11/25 03:57:20;;;;;;;32.73;18.67;;;;;;;2.48;100.00;101451.53;4979768;28;20240;-72
2022/11/25 03:59:46;;;;;;;47.33;18.83;;;;;;;2.38;100.00;101452.59;4981157;28;20327;-72
2022/11/25 04:02:13;;;;;;;30.63;18.10;;;;;;;2.36;100.00;101450.78;4985256;28;20191;-72
2022/11/25 04:04:38;;;;;;;74.60;20.53;;;;;;;2.32;100.00;101454.78;4980950;28;20181;-72
2022/11/25 04:07:04;;;;;;;33.50;18.07;;;;;;;2.33;100.00;101463.19;4981745;28;20204;-72
2022/11/25 04:09:30;;;;;;;31.47;17.87;;;;;;;2.30;100.00;101446.19;4986223;28;20653;-71
2022/11/25 04:14:53;;;;;;;34.30;16.93;;;;;;;2.28;100.00;101452.81;4973807;28;20578;-72
2022/11/25 04:17:18;;;;;;;34.90;16.97;;;;;;;2.23;100.00;101453.31;4976163;28;20496;-72
2022/11/25 04:19:44;;;;;;;32.30;17.60;;;;;;;2.20;100.00;101463.25;4961386;28;20212;-72
2022/11/25 04:22:10;;;;;;;31.57;18.03;;;;;;;2.18;100.00;101454.69;4976189;28;20194;-72
2022/11/25 04:24:38;;;;;;;31.47;16.80;;;;;;;2.20;100.00;101451.47;4980430;28;20586;-72
2022/11/25 04:27:04;;;;;;;26.67;16.97;;;;;;;2.17;100.00;101455.47;4969080;28;20204;-71
2022/11/25 04:29:30;;;;;;;28.27;16.67;;;;;;;2.09;100.00;101454.13;4978234;28;20528;-71
2022/11/25 04:31:58;;;;;;;27.13;17.40;;;;;;;2.09;100.00;101452.47;4985948;28;20195;-72
2022/11/25 04:34:24;;;;;;;31.07;16.53;;;;;;;2.05;100.00;101440.44;4969639;28;20207;-72
2022/11/25 04:36:51;;;;;;;30.53;18.73;;;;;;;2.05;100.00;101439.53;4984605;28;20250;-72
2022/11/25 04:39:17;;;;;;;27.80;17.63;;;;;;;2.01;100.00;101432.56;4983204;28;20278;-72
2022/11/25 04:41:43;;;;;;;32.23;17.17;;;;;;;2.01;100.00;101430.91;4984108;28;20202;-72
2022/11/25 04:44:09;;;;;;;31.43;17.43;;;;;;;2.00;100.00;101430.81;4982213;28;20724;-72
2022/11/25 04:46:40;;;;;;;30.00;16.77;;;;;;;1.99;100.00;101434.13;4976555;28;20215;-72
2022/11/25 04:49:05;;;;;;;31.77;18.63;;;;;;;2.13;100.00;101433.31;4978329;28;20184;-71
2022/11/25 04:51:31;;;;;;;29.23;17.47;;;;;;;2.18;100.00;101432.84;4991048;28;20184;-72
2022/11/25 04:54:00;;;;;;;37.37;19.20;;;;;;;2.23;100.00;101443.22;4987397;28;20254;-72
2022/11/25 04:56:26;;;;;;;41.27;19.83;;;;;;;2.27;100.00;101445.16;4977372;28;20696;-71
2022/11/25 05:01:44;;;;;;;35.63;20.33;;;;;;;2.37;100.00;101457.56;4981807;28;20231;-72
2022/11/25 05:04:26;;;;;;;35.03;19.47;;;;;;;2.40;100.00;101451.06;4986552;28;20195;-72
2022/11/25 05:06:53;;;;;;;37.33;19.30;;;;;;;2.40;100.00;101451.06;4979415;28;20813;-72
2022/11/25 05:09:19;;;;;;;37.37;20.00;;;;;;;2.53;100.00;101451.00;4975217;28;20274;-72
2022/11/25 05:11:50;;;;;;;42.40;19.83;;;;;;;2.57;100.00;101452.09;4965693;28;20188;-71
2022/11/25 05:14:15;;;;;;;36.50;20.20;;;;;;;2.57;100.00;101460.53;4977368;28;20279;-72
2022/11/25 05:16:41;;;;;;;36.47;19.53;;;;;;;2.65;100.00;101450.88;4971547;28;20227;-71
2022/11/25 05:19:08;;;;;;;35.87;19.33;;;;;;;2.69;100.00;101458.75;4983341;28;20297;-71
2022/11/25 05:21:33;;;;;;;39.43;20.17;;;;;;;2.70;100.00;101454.53;4965528;28;20244;-72
2022/11/25 05:23:59;;;;;;;34.60;18.70;;;;;;;2.64;100.00;101452.53;4965582;28;20704;-71
2022/11/25 05:26:27;;;;;;;39.20;18.33;;;;;;;2.73;100.00;101454.75;4983665;28;20299;-71
2022/11/25 05:28:56;;;;;;;32.33;18.07;;;;;;;2.78;100.00;101454.25;4982439;28;20191;-71
2022/11/25 05:31:21;;;;;;;36.83;18.07;;;;;;;2.75;100.00;101454.03;4981750;28;20632;-72
2022/11/25 05:33:47;;;;;;;35.97;18.03;;;;;;;2.73;100.00;101454.75;4979851;28;20188;-71
2022/11/25 05:36:14;;;;;;;36.40;17.50;;;;;;;2.76;100.00;101454.94;4977048;28;20204;-72
2022/11/25 05:38:44;;;;;;;30.97;17.63;;;;;;;2.76;100.00;101454.94;4971465;28;20199;-72
2022/11/25 05:41:13;;;;;;;29.50;15.70;;;;;;;2.73;100.00;101454.75;4995934;28;20735;-72
2022/11/25 05:43:41;;;;;;;31.70;16.37;;;;;;;2.71;100.00;101458.84;4997619;28;21030;-71
2022/11/25 05:46:08;;;;;;;30.63;16.83;;;;;;;2.75;100.00;101449.00;4998829;28;20199;-72
2022/11/25 05:48:35;;;;;;;33.37;15.93;;;;;;;2.81;100.00;101451.88;4988157;28;20199;-72
2022/11/25 05:51:02;;;;;;;35.87;15.70;;;;;;;2.80;100.00;101457.72;4984347;28;20629;-72
2022/11/25 05:53:30;;;;;;;33.80;15.90;;;;;;;2.83;100.00;101457.03;4983317;28;20207;-71
2022/11/25 05:56:00;;;;;;;29.67;15.33;;;;;;;2.85;100.00;101455.47;4995122;28;20242;-71
2022/11/25 05:58:43;;;;;;;27.43;13.83;;;;;;;2.83;100.00;101454.50;4992870;28;20180;-71
2022/11/25 06:01:11;;;;;;;29.57;14.53;;;;;;;2.85;100.00;101446.22;4994534;28;20220;-72
2022/11/25 06:03:37;;;;;;;30.00;14.37;;;;;;;2.79;100.00;101440.81;4970261;28;20187;-71
2022/11/25 06:06:04;;;;;;;29.60;14.53;;;;;;;2.80;100.00;101439.16;4986952;28;20644;-72
2022/11/25 06:08:30;;;;;;;30.13;14.97;;;;;;;2.83;100.00;101431.75;4988810;28;20676;-72
2022/11/25 06:10:56;;;;;;;30.47;15.00;;;;;;;2.82;100.00;101435.06;4989320;28;20175;-72
2022/11/25 06:13:22;;;;;;;29.20;14.40;;;;;;;2.82;100.00;101428.38;4992233;28;20195;-72
2022/11/25 06:15:47;;;;;;;27.33;13.93;;;;;;;2.88;100.00;101433.78;4993712;28;20254;-72
2022/11/25 06:18:16;;;;;;;29.73;14.27;;;;;;;2.93;100.00;101434.03;4995822;28;20196;-72
2022/11/25 06:20:42;;;;;;;33.13;14.87;;;;;;;2.94;100.00;101435.81;4992147;28;20287;-72
2022/11/25 06:23:09;;;;;;;28.87;13.50;;;;;;;2.93;100.00;101434.03;4989756;28;20262;-72
2022/11/25 06:25:36;;;;;;;26.27;13.10;;;;;;;2.93;100.00;101434.03;4987349;28;20208;-72
2022/11/25 06:28:02;;;;;;;29.30;14.87;;;;;;;2.97;100.00;101421.66;4977266;28;20554;-72
2022/11/25 06:30:29;;;;;;;32.73;14.50;;;;;;;2.95;100.00;101418.16;4972180;28;20188;-72
2022/11/25 06:33:15;;;;;;;32.43;13.87;;;;;;;2.96;100.00;101427.53;4984752;28;20199;-72
2022/11/25 06:35:43;;;;;;;28.83;13.77;;;;;;;3.00;100.00;101423.50;4986082;28;20219;-72
2022/11/25 06:38:08;;;;;;;24.33;13.57;;;;;;;3.11;100.00;101433.47;4975498;28;20192;-72
2022/11/25 06:40:34;;;;;;;27.27;14.33;;;;;;;3.15;100.00;101427.78;4983513;28;20216;-72
2022/11/25 06:42:59;;;;;;;32.60;13.93;;;;;;;3.20;100.00;101430.56;4984677;28;20196;-72
2022/11/25 06:45:25;;;;;;;28.10;13.43;;;;;;;3.21;100.00;101427.25;4979057;28;20235;-71
2022/11/25 06:47:50;;;;;;;29.77;14.13;;;;;;;3.22;100.00;101424.81;4988069;28;20200;-72
2022/11/25 06:50:15;;;;;;;25.53;13.40;;;;;;;3.23;100.00;101449.38;4990631;28;20195;-72
2022/11/25 06:52:41;;;;;;;25.37;12.60;;;;;;;3.38;100.00;101452.75;4985703;28;20211;-72
2022/11/25 06:55:07;;;;;;;28.17;12.23;;;;;;;3.44;100.00;101452.22;4985894;28;20196;-72
2022/11/25 06:57:32;;;;;;;24.77;12.43;;;;;;;3.42;100.00;101444.56;4987253;28;20278;-71
2022/11/25 06:59:57;;;;;;;28.43;14.30;;;;;;;3.48;100.00;101456.69;4985286;28;20256;-71
2022/11/25 07:02:23;;;;;;;29.73;14.40;;;;;;;3.46;100.00;101451.56;4975424;28;20199;-72
2022/11/25 07:04:48;;;;;;;28.77;13.43;;;;;;;3.47;100.00;101452.41;4971730;28;20210;-71
2022/11/25 07:07:14;;;;;;;25.57;13.23;;;;;;;3.46;100.00;101450.66;4989934;28;20222;-72
2022/11/25 07:09:39;;;;;;;27.50;13.80;;;;;;;3.52;100.00;101454.41;4970003;28;20230;-72
2022/11/25 07:12:05;;;;;;;21.07;13.03;;;;;;;3.53;100.00;101458.69;4985500;28;20603;-71
2022/11/25 07:14:31;;;;;;;28.10;12.37;;;;;;;3.57;100.00;101458.09;4970697;28;20215;-71
2022/11/25 07:16:56;;;;;;;30.80;12.97;;;;;;;3.61;100.00;101469.25;4974625;28;20216;-72
2022/11/25 07:19:22;;;;;;;25.50;13.53;;;;;;;3.64;100.00;101464.38;4990358;28;20215;-72
2022/11/25 07:21:47;;;;;;;25.63;12.30;;;;;;;3.69;100.00;101468.88;4988143;28;20188;-72
2022/11/25 07:24:15;;;;;;;28.33;13.27;;;;;;;3.73;100.00;101465.75;4991894;28;20548;-72
2022/11/25 07:26:42;;;;;;;28.53;13.77;;;;;;;3.78;100.00;101478.69;4988512;28;20242;-72
2022/11/25 07:29:10;;;;;;;22.40;12.53;;;;;;;3.79;100.00;101480.41;4990094;28;20188;-72
2022/11/25 07:31:39;;;;;;;27.87;12.77;;;;;;;3.81;100.00;101482.25;4985392;28;20738;-72
2022/11/25 07:34:12;;;;;;;20.87;11.90;;;;;;;3.84;100.00;101484.06;4976697;28;20658;-71
2022/11/25 07:36:38;;;;;;;20.23;12.43;;;;;;;3.86;100.00;101487.59;4983173;28;20246;-73
2022/11/25 07:39:07;;;;;;;28.57;13.50;;;;;;;3.85;100.00;101499.38;4985602;28;20294;-72
2022/11/25 07:41:33;;;;;;;28.17;12.60;;;;;;;3.88;100.00;101504.59;4992990;28;20557;-72
2022/11/25 07:44:02;;;;;;;20.53;12.10;;;;;;;3.89;100.00;101506.34;4988325;28;20275;-73
2022/11/25 07:46:36;;;;;;;25.53;13.03;;;;;;;3.87;100.00;101510.44;4986254;28;20250;-73
2022/11/25 07:49:08;;;;;;;25.00;11.87;;;;;;;3.91;100.00;101503.91;4988204;28;20722;-74
2022/11/25 07:51:55;;;;;;;20.83;11.30;;;;;;;3.91;100.00;101504.75;4988102;28;20247;-73
2022/11/25 07:54:22;;;;;;;21.23;11.70;;;;;;;3.92;100.00;101509.03;4997671;28;20196;-72
2022/11/25 07:56:48;;;;;;;22.47;12.07;;;;;;;3.92;100.00;101508.19;4976853;28;20216;-73
2022/11/25 07:59:19;;;;;;;24.23;12.77;;;;;;;3.95;100.00;101503.28;4987567;28;20761;-73
2022/11/25 08:01:47;;;;;;;24.03;13.27;;;;;;;3.98;100.00;101501.81;4987872;28;20720;-73
2022/11/25 08:04:14;;;;;;;22.23;12.33;;;;;;;3.98;100.00;101494.19;4993517;28;20246;-71
2022/11/25 08:06:45;;;;;;;24.00;13.37;;;;;;;4.00;100.00;101491.75;4988851;28;20259;-72
2022/11/25 08:09:13;;;;;;;21.60;11.60;;;;;;;4.03;100.00;101484.31;4968398;28;20196;-72
2022/11/25 08:11:40;;;;;;;21.93;12.43;;;;;;;4.08;100.00;101483.78;4994310;28;20278;-72
2022/11/25 08:14:06;;;;;;;20.77;11.33;;;;;;;4.15;100.00;101485.00;4981364;28;20191;-73
2022/11/25 08:16:32;;;;;;;23.00;11.40;;;;;;;4.20;100.00;101492.06;4996119;28;20314;-72
2022/11/25 08:19:00;;;;;;;20.00;11.10;;;;;;;4.26;100.00;101487.31;4996049;28;20192;-72
2022/11/25 08:21:26;;;;;;;22.30;11.40;;;;;;;4.37;100.00;101496.38;4992825;28;20890;-73
2022/11/25 08:23:52;;;;;;;24.10;11.17;;;;;;;4.42;100.00;101494.09;4975294;28;20196;-72
2022/11/25 08:26:22;;;;;;;21.30;11.67;;;;;;;4.46;100.00;101501.94;4985133;28;20204;-73
2022/11/25 08:28:48;;;;;;;19.63;10.90;;;;;;;4.45;100.00;101500.19;4984161;28;20192;-73
2022/11/25 08:31:23;;;;;;;19.53;10.17;;;;;;;4.49;100.00;101503.75;4993153;28;20193;-73
2022/11/25 08:33:51;;;;;;;16.23;10.13;;;;;;;4.51;100.00;101505.59;4986253;28;20183;-74
2022/11/25 08:36:18;;;;;;;19.73;10.10;;;;;;;4.57;100.00;101507.59;4989119;28;20212;-73
2022/11/25 08:38:46;;;;;;;18.17;10.00;;;;;;;4.61;100.00;101502.75;4989834;28;20252;-73
2022/11/25 08:41:15;;;;;;;23.93;11.10;;;;;;;4.64;100.00;101504.56;4988920;28;20197;-73
2022/11/25 08:43:41;;;;;;;18.33;10.27;;;;;;;4.67;100.00;101512.34;4968298;28;20216;-73
2022/11/25 08:46:12;;;;;;;17.73;9.90;;;;;;;4.69;100.00;101503.19;4993488;28;20251;-73
2022/11/25 08:48:38;;;;;;;18.90;10.20;;;;;;;4.71;100.00;101506.66;4992547;28;20195;-74
2022/11/25 08:51:09;;;;;;;20.43;11.23;;;;;;;4.73;100.00;101510.13;4991384;28;20227;-73
2022/11/25 08:53:35;;;;;;;17.00;9.37;;;;;;;4.73;100.00;101511.03;4995743;28;20187;-74
2022/11/25 08:56:00;;;;;;;23.23;10.43;;;;;;;4.75;100.00;101503.50;4990672;28;20216;-74
2022/11/25 08:58:26;;;;;;;19.80;9.33;;;;;;;4.77;100.00;101514.59;4991279;28;20238;-73
2022/11/25 09:00:51;;;;;;;18.63;9.97;;;;;;;4.80;100.00;101515.66;4991550;28;20208;-73
2022/11/25 09:03:16;;;;;;;20.93;10.50;;;;;;;4.82;100.00;101510.63;4988888;28;20196;-73
2022/11/25 09:05:43;;;;;;;23.57;11.33;;;;;;;4.82;100.00;101519.13;4989607;28;20224;-73
2022/11/25 09:08:09;;;;;;;17.53;9.67;;;;;;;4.85;100.00;101519.28;4988425;28;20196;-75
2022/11/25 09:10:36;;;;;;;22.43;9.87;;;;;;;4.87;100.00;101509.19;4972562;28;20203;-73
2022/11/25 09:13:02;;;;;;;17.03;9.83;;;;;;;4.93;100.00;101504.47;4994773;28;20286;-73
2022/11/25 09:15:28;;;;;;;20.13;9.47;;;;;;;4.93;100.00;101510.38;4992044;28;20692;-73
2022/11/25 09:18:06;;;;;;;18.17;10.80;;;;;;;4.89;100.00;101505.97;4988731;28;20184;-73
2022/11/25 09:20:33;;;;;;;19.97;10.87;;;;;;;4.93;100.00;101509.53;4984321;28;20720;-74
2022/11/25 09:23:00;;;;;;;17.43;10.40;;;;;;;4.96;100.00;101517.28;4990945;28;20195;-73
2022/11/25 09:25:26;;;;;;;17.37;10.17;;;;;;;5.02;100.00;101532.84;4993584;28;20207;-73
2022/11/25 09:27:52;;;;;;;16.63;10.27;;;;;;;5.08;100.00;101531.50;4985294;28;20204;-73
2022/11/25 09:30:17;;;;;;;19.17;10.70;;;;;;;5.14;100.00;101526.75;4989711;28;20196;-73
2022/11/25 09:32:43;;;;;;;19.03;10.77;;;;;;;5.18;100.00;101526.13;4972575;28;20210;-73
2022/11/25 09:35:09;;;;;;;18.43;10.77;;;;;;;5.21;100.00;101517.78;4989168;28;20188;-73
2022/11/25 09:37:34;;;;;;;18.23;9.70;;;;;;;5.20;100.00;101524.50;4971329;28;20188;-73
2022/11/25 09:40:00;;;;;;;23.80;9.73;;;;;;;5.20;100.00;101523.66;4989159;28;20216;-73
2022/11/25 09:48:57;;;;;;;19.27;9.63;;;;;;;5.21;100.00;101541.47;4986472;28;20297;-73
2022/11/25 09:51:37;;;;;;;23.13;9.90;;;;;;;5.21;100.00;101530.47;4984700;28;20699;-72
2022/11/25 09:54:09;;;;;;;17.37;9.37;;;;;;;5.17;100.00;101536.19;4990380;28;20188;-72
2022/11/25 09:56:38;;;;;;;21.23;9.87;;;;;;;5.18;100.00;101535.38;4971114;28;20227;-72
2022/11/25 09:59:09;;;;;;;16.27;9.97;;;;;;;5.19;100.00;101543.09;4987815;28;20230;-72
2022/11/25 10:02:07;;;;;;;19.47;9.97;;;;;;;5.16;100.00;101545.44;4984642;28;20693;-72
2022/11/25 10:04:48;;;;;;;19.10;10.20;;;;;;;5.13;100.00;101534.28;4986516;28;20227;-72
2022/11/25 10:07:21;;;;;;;21.13;11.13;;;;;;;5.18;100.00;101541.34;4981537;28;20231;-72
2022/11/25 10:09:47;;;;;;;19.43;10.90;;;;;;;5.19;100.00;101532.94;4986915;28;20196;-73
2022/11/25 10:12:23;;;;;;;18.10;10.83;;;;;;;5.22;100.00;101534.75;4971647;28;20243;-73
2022/11/25 10:14:51;;;;;;;19.90;11.00;;;;;;;5.25;100.00;101537.47;4985115;28;20220;-73
2022/11/25 10:17:24;;;;;;;20.63;11.87;;;;;;;5.30;100.00;101536.03;4970014;28;20224;-74
2022/11/25 10:20:01;;;;;;;19.20;11.57;;;;;;;5.33;100.00;101538.69;4991508;28;20238;-73
2022/11/25 10:22:32;;;;;;;17.60;10.97;;;;;;;5.37;100.00;101540.59;4988680;28;20221;-73
2022/11/25 10:25:13;;;;;;;19.20;10.60;;;;;;;5.42;100.00;101545.13;4979903;28;20193;-72
2022/11/25 10:27:44;;;;;;;18.57;10.23;;;;;;;5.46;100.00;101543.59;4993563;28;20196;-73
2022/11/25 10:30:25;;;;;;;19.10;10.00;;;;;;;5.50;100.00;101543.84;4997334;28;20211;-73
2022/11/25 10:32:58;;;;;;;18.13;10.87;;;;;;;5.51;100.00;101542.16;4986141;28;20195;-73
2022/11/25 10:35:32;;;;;;;21.30;11.60;;;;;;;5.50;100.00;101541.31;4984418;28;20809;-73
2022/11/25 10:38:02;;;;;;;19.67;10.80;;;;;;;5.55;100.00;101546.63;4987394;28;20739;-74
2022/11/25 10:40:27;;;;;;;17.27;11.03;;;;;;;5.59;100.00;101541.78;4987874;28;20247;-73
2022/11/25 10:42:53;;;;;;;15.97;10.00;;;;;;;5.59;100.00;101541.78;4989150;28;20199;-73
2022/11/25 10:45:30;;;;;;;24.17;11.77;;;;;;;5.61;100.00;101547.81;4991411;28;20187;-73
2022/11/25 10:48:16;;;;;;;17.17;10.33;;;;;;;5.67;100.00;101543.00;4993967;28;20199;-72
2022/11/25 10:50:56;;;;;;;16.93;9.93;;;;;;;5.70;100.00;101545.72;4988863;28;20186;-74
2022/11/25 10:53:24;;;;;;;18.70;10.73;;;;;;;5.74;100.00;101551.81;4989971;28;20188;-74
2022/11/25 10:55:57;;;;;;;19.80;10.30;;;;;;;5.73;100.00;101550.06;4991007;28;20211;-73
2022/11/25 10:58:29;;;;;;;19.13;10.57;;;;;;;5.76;100.00;101550.25;4982176;28;20193;-74
2022/11/25 11:01:26;;;;;;;17.83;9.90;;;;;;;5.78;100.00;101548.63;4990560;28;20219;-74
2022/11/25 11:04:02;;;;;;;19.83;10.17;;;;;;;5.78;100.00;101544.44;4986573;28;20219;-73
2022/11/25 11:06:30;;;;;;;17.90;10.03;;;;;;;5.82;100.00;101550.56;4990496;28;20211;-73
2022/11/25 11:08:56;;;;;;;17.07;9.70;;;;;;;5.86;100.00;101544.84;4980553;28;20219;-73
2022/11/25 11:11:23;;;;;;;19.67;9.63;;;;;;;5.88;100.00;101543.25;4981584;28;20195;-73
2022/11/25 11:13:56;;;;;;;20.03;10.03;;;;;;;5.90;100.00;101551.81;4985097;28;20203;-74
2022/11/25 11:16:26;;;;;;;14.63;9.17;;;;;;;5.90;100.00;101557.75;4981279;28;20215;-74
2022/11/25 11:18:54;;;;;;;17.50;10.10;;;;;;;5.93;100.00;101557.91;4984686;28;20200;-73
2022/11/25 11:21:28;;;;;;;18.10;10.30;;;;;;;5.95;100.00;101560.53;4989065;28;20868;-74
2022/11/25 11:23:55;;;;;;;19.30;10.90;;;;;;;5.99;100.00;101559.91;4987238;28;20258;-73
2022/11/25 11:26:27;;;;;;;16.53;10.83;;;;;;;5.99;100.00;101555.66;4992059;28;20703;-73
2022/11/25 11:28:57;;;;;;;20.87;10.07;;;;;;;6.04;100.00;101555.91;4972190;28;20207;-73
2022/11/25 11:31:27;;;;;;;18.90;10.10;;;;;;;6.10;100.00;101559.63;4975113;28;20570;-73
2022/11/25 11:34:09;;;;;;;22.50;10.60;;;;;;;6.17;100.00;101560.78;4994114;28;20180;-73